Time;durP1;ratioP1;P1;durP2;ratioP2;P2;SDS_P1;SDS_P2;PMS_P1;PMS_P2;Temp;Humidity;BMP_temperature;BMP_pressure;BME280_temperature;BME280_humidity;BME280_pressure;Samples;Min_cycle;Max_cycle;Signal;HPM_P1;HPM_P2
2022/07/01 00:00:30;;;;;;;2.92;1.45;;;13.80;99.90;;;;;;5106035;28;20054;-58
2022/07/01 00:02:58;;;;;;;2.25;1.60;;;13.80;99.90;;;;;;5105791;28;20044;-54
2022/07/01 00:05:26;;;;;;;3.25;1.60;;;13.80;99.90;;;;;;5091804;28;20055;-55
2022/07/01 00:07:53;;;;;;;2.30;1.40;;;13.80;99.90;;;;;;5090674;28;20044;-56
2022/07/01 00:10:21;;;;;;;1.35;1.25;;;13.80;99.90;;;;;;5091899;28;20036;-56
2022/07/01 00:12:49;;;;;;;1.90;1.40;;;13.80;99.90;;;;;;5091707;28;20044;-55
2022/07/01 00:15:16;;;;;;;2.63;2.00;;;13.80;99.90;;;;;;5100055;28;20048;-55
2022/07/01 00:17:44;;;;;;;6.70;1.60;;;13.80;99.90;;;;;;5107027;28;20047;-55
2022/07/01 00:20:12;;;;;;;3.33;1.60;;;13.80;99.90;;;;;;5091821;28;20051;-56
2022/07/01 00:22:40;;;;;;;1.75;1.40;;;13.80;99.90;;;;;;5091688;28;20036;-57
2022/07/01 00:25:09;;;;;;;3.40;1.60;;;13.70;99.90;;;;;;5097246;28;20050;-57
2022/07/01 00:27:38;;;;;;;2.70;1.73;;;13.80;99.90;;;;;;5110812;28;20043;-54
2022/07/01 00:30:08;;;;;;;3.10;1.45;;;13.80;99.90;;;;;;5094442;28;20044;-58
2022/07/01 00:32:36;;;;;;;3.13;1.52;;;13.80;99.90;;;;;;5091713;28;20044;-57
2022/07/01 00:35:05;;;;;;;5.60;1.98;;;13.70;99.90;;;;;;5092721;28;20040;-56
2022/07/01 00:37:32;;;;;;;3.58;1.73;;;13.80;99.90;;;;;;5111134;28;20054;-55
2022/07/01 00:40:00;;;;;;;6.88;2.33;;;13.70;99.90;;;;;;5106647;28;20059;-58
2022/07/01 00:42:28;;;;;;;1.90;1.60;;;13.70;99.90;;;;;;5111699;28;20044;-58
2022/07/01 00:44:56;;;;;;;4.28;1.90;;;13.70;99.90;;;;;;5109020;28;20044;-55
2022/07/01 00:47:24;;;;;;;5.45;1.95;;;13.70;99.90;;;;;;5109464;28;20038;-58
2022/07/01 00:49:52;;;;;;;2.65;1.58;;;13.70;99.90;;;;;;5109515;28;20055;-59
2022/07/01 00:52:20;;;;;;;3.47;2.05;;;13.70;99.90;;;;;;5111288;28;20051;-58
2022/07/01 00:54:51;;;;;;;3.80;1.60;;;13.70;99.90;;;;;;5109902;28;20051;-58
2022/07/01 00:57:19;;;;;;;2.13;1.90;;;13.70;99.90;;;;;;5110673;28;20197;-58
2022/07/01 00:59:46;;;;;;;4.03;2.28;;;13.70;99.90;;;;;;5106542;28;20044;-57
2022/07/01 01:02:14;;;;;;;3.38;2.10;;;13.80;99.90;;;;;;5109461;28;20044;-57
2022/07/01 01:04:42;;;;;;;6.32;2.08;;;13.70;99.90;;;;;;5089539;28;20059;-58
2022/07/01 01:07:09;;;;;;;4.13;2.10;;;13.70;99.90;;;;;;5088139;28;20047;-58
2022/07/01 01:09:37;;;;;;;5.55;2.30;;;13.70;99.90;;;;;;5090429;28;20060;-58
2022/07/01 01:12:05;;;;;;;3.40;2.08;;;13.70;99.90;;;;;;5108727;28;20047;-57
2022/07/01 01:14:47;;;;;;;7.50;2.28;;;13.70;99.90;;;;;;5093547;28;20498;-58
2022/07/01 01:17:16;;;;;;;4.18;2.10;;;13.70;99.90;;;;;;5111099;28;20056;-58
2022/07/01 01:19:45;;;;;;;4.70;2.28;;;13.70;99.90;;;;;;5093083;28;20059;-58
2022/07/01 01:22:15;;;;;;;4.80;2.45;;;13.70;99.90;;;;;;5108672;28;20074;-58
2022/07/01 01:24:44;;;;;;;7.82;2.60;;;13.70;99.90;;;;;;5110089;28;20062;-59
2022/07/01 01:27:12;;;;;;;3.00;2.53;;;13.70;99.90;;;;;;5108126;28;20047;-58
2022/07/01 01:29:40;;;;;;;4.00;2.17;;;13.70;99.90;;;;;;5100279;28;20055;-58
2022/07/01 01:32:08;;;;;;;6.93;2.92;;;13.70;99.90;;;;;;5107248;28;20055;-59
2022/07/01 01:34:37;;;;;;;5.05;2.80;;;13.70;99.90;;;;;;5111672;28;20067;-57
2022/07/01 01:37:07;;;;;;;6.13;2.53;;;13.60;99.90;;;;;;5110927;28;20051;-57
2022/07/01 01:39:37;;;;;;;4.05;2.67;;;13.50;99.90;;;;;;5107762;28;20044;-58
2022/07/01 01:42:05;;;;;;;;;;;13.50;99.90;;;;;;5111311;28;20055;-58
2022/07/01 01:44:33;;;;;;;3.03;2.38;;;13.40;99.90;;;;;;5112072;28;19919;-58
2022/07/01 01:47:02;;;;;;;3.80;2.67;;;13.30;99.90;;;;;;5109448;28;20044;-55
2022/07/01 01:49:29;;;;;;;4.68;2.70;;;13.30;99.90;;;;;;5111864;28;20054;-56
2022/07/01 01:51:59;;;;;;;5.10;2.55;;;13.20;99.90;;;;;;5110956;28;20044;-57
2022/07/01 01:54:27;;;;;;;6.30;2.17;;;13.20;99.90;;;;;;5110888;28;20463;-56
2022/07/01 01:56:55;;;;;;;4.00;2.25;;;13.20;99.90;;;;;;5111802;28;20055;-56
2022/07/01 01:59:22;;;;;;;2.38;2.17;;;13.20;99.90;;;;;;5110345;28;20040;-57
2022/07/01 02:01:50;;;;;;;3.22;2.20;;;13.10;99.90;;;;;;5111005;28;20051;-57
2022/07/01 02:04:18;;;;;;;3.75;2.20;;;13.10;99.90;;;;;;5110847;28;20044;-56
2022/07/01 02:06:46;;;;;;;6.30;2.95;;;13.00;99.90;;;;;;5111746;28;20043;-56
2022/07/01 02:09:14;;;;;;;3.97;2.40;;;13.00;99.90;;;;;;5111792;28;20396;-56
2022/07/01 02:11:42;;;;;;;6.03;2.95;;;12.90;99.90;;;;;;5110673;28;20044;-56
2022/07/01 02:14:10;;;;;;;3.28;2.88;;;12.80;99.90;;;;;;5110285;28;20430;-55
2022/07/01 02:16:37;;;;;;;8.55;2.78;;;12.70;99.90;;;;;;5109747;28;20043;-55
2022/07/01 02:19:05;;;;;;;9.32;2.95;;;12.70;99.90;;;;;;5111670;28;20483;-55
2022/07/01 02:21:32;;;;;;;7.32;2.70;;;12.70;99.90;;;;;;5111851;28;20044;-55
2022/07/01 02:24:00;;;;;;;4.70;2.70;;;12.70;99.90;;;;;;5111098;28;20604;-55
2022/07/01 02:26:28;;;;;;;6.28;2.45;;;12.60;99.90;;;;;;5110453;28;20506;-54
2022/07/01 02:28:55;;;;;;;4.78;2.60;;;12.60;99.90;;;;;;5111698;28;20487;-56
2022/07/01 02:31:23;;;;;;;6.53;3.08;;;12.60;99.90;;;;;;5111527;28;20048;-56
2022/07/01 02:33:51;;;;;;;6.03;2.63;;;12.60;99.90;;;;;;5111695;28;20051;-55
2022/07/01 02:36:18;;;;;;;6.30;2.75;;;12.60;99.90;;;;;;5109397;28;20054;-54
2022/07/01 02:38:46;;;;;;;3.75;2.65;;;12.60;99.90;;;;;;5111729;28;20036;-55
2022/07/01 02:41:13;;;;;;;4.13;2.40;;;12.60;99.90;;;;;;5111589;28;20050;-54
2022/07/01 02:43:41;;;;;;;5.05;2.35;;;12.50;99.90;;;;;;5111073;28;20052;-54
2022/07/01 02:46:08;;;;;;;3.15;2.22;;;12.60;99.90;;;;;;5111410;28;20040;-54
2022/07/01 02:48:36;;;;;;;2.72;2.10;;;12.60;99.90;;;;;;5110350;28;20070;-54
2022/07/01 02:51:04;;;;;;;4.50;2.38;;;12.60;99.90;;;;;;5110558;28;20050;-54
2022/07/01 02:53:31;;;;;;;2.53;2.13;;;12.60;99.90;;;;;;5111498;28;20051;-54
2022/07/01 02:55:59;;;;;;;6.38;2.40;;;12.60;99.90;;;;;;5111836;28;20047;-56
2022/07/01 02:58:26;;;;;;;4.07;2.35;;;12.60;99.90;;;;;;5111261;28;20047;-57
2022/07/01 03:00:54;;;;;;;3.83;2.60;;;12.50;99.90;;;;;;5112263;28;20036;-56
2022/07/01 03:03:22;;;;;;;5.53;2.80;;;12.50;99.90;;;;;;5115174;28;20063;-57
2022/07/01 03:05:49;;;;;;;4.75;2.90;;;12.40;99.90;;;;;;5113156;28;20048;-57
2022/07/01 03:08:17;;;;;;;5.68;3.35;;;12.40;99.90;;;;;;5114898;28;20478;-57
2022/07/01 03:10:45;;;;;;;4.68;3.40;;;12.40;99.90;;;;;;5113647;28;20616;-57
2022/07/01 03:13:12;;;;;;;4.90;2.90;;;12.40;99.90;;;;;;5113955;28;20070;-56
2022/07/01 03:15:40;;;;;;;6.57;3.50;;;12.40;99.90;;;;;;5113276;28;20036;-57
2022/07/01 03:18:09;;;;;;;4.90;3.72;;;12.40;99.90;;;;;;5114781;28;20059;-55
2022/07/01 03:20:36;;;;;;;3.70;3.10;;;12.40;99.90;;;;;;5113202;28;20036;-58
2022/07/01 03:23:04;;;;;;;4.93;3.28;;;12.40;99.90;;;;;;5113421;28;20486;-58
2022/07/01 03:25:32;;;;;;;6.45;2.75;;;12.40;99.90;;;;;;5114474;28;20066;-58
2022/07/01 03:28:03;;;;;;;7.32;3.47;;;12.40;99.90;;;;;;5114654;28;20052;-57
2022/07/01 03:30:31;;;;;;;9.23;3.38;;;12.40;99.90;;;;;;5114598;28;20044;-57
2022/07/01 03:32:58;;;;;;;5.10;3.38;;;12.40;99.90;;;;;;5113079;28;20403;-57
2022/07/01 03:35:45;;;;;;;7.72;2.88;;;12.50;99.90;;;;;;5113432;28;20044;-58
2022/07/01 03:38:12;;;;;;;10.55;3.17;;;12.40;99.90;;;;;;5113675;28;20044;-56
2022/07/01 03:40:40;;;;;;;6.90;3.85;;;12.40;99.90;;;;;;5114516;28;20044;-56
2022/07/01 03:43:09;;;;;;;5.70;3.20;;;12.40;99.90;;;;;;5112817;28;20047;-57
2022/07/01 03:45:36;;;;;;;4.07;2.95;;;12.40;99.90;;;;;;5111409;28;20036;-57
2022/07/01 03:48:04;;;;;;;7.28;3.20;;;12.40;99.90;;;;;;5113002;28;20474;-57
2022/07/01 03:50:32;;;;;;;5.85;2.92;;;12.40;99.90;;;;;;5114166;28;20039;-57
2022/07/01 03:55:45;;;;;;;4.38;2.90;;;12.30;99.90;;;;;;5112489;28;20061;-58
2022/07/01 03:58:13;;;;;;;6.38;2.95;;;12.30;99.90;;;;;;5111881;28;20047;-58
2022/07/01 04:00:41;;;;;;;4.20;2.83;;;12.20;99.90;;;;;;5112858;28;20043;-58
2022/07/01 04:03:09;;;;;;;6.40;2.83;;;12.20;99.90;;;;;;5113918;28;20051;-57
2022/07/01 04:05:38;;;;;;;4.82;3.08;;;12.20;99.90;;;;;;5112356;28;20039;-58
2022/07/01 04:08:07;;;;;;;3.72;2.88;;;12.20;99.90;;;;;;5111651;28;20039;-58
2022/07/01 04:10:35;;;;;;;8.07;2.50;;;12.20;99.90;;;;;;5113775;28;20047;-58
2022/07/01 04:13:03;;;;;;;4.38;2.92;;;12.20;99.90;;;;;;5109863;28;20048;-58
2022/07/01 04:15:51;;;;;;;4.15;3.10;;;12.20;99.90;;;;;;5104324;28;20036;-57
2022/07/01 04:18:19;;;;;;;5.97;2.85;;;12.20;99.90;;;;;;5112141;28;20044;-58
2022/07/01 04:22:32;;;;;;;7.32;3.17;;;12.20;99.90;;;;;;5113563;28;20036;-58
2022/07/01 04:23:34;;;;;;;5.97;3.22;;;12.20;99.90;;;;;;5112815;27;20054;-58
2022/07/01 04:26:03;;;;;;;7.95;3.58;;;12.20;99.90;;;;;;5113396;28;20359;-58
2022/07/01 04:28:51;;;;;;;4.35;3.20;;;12.20;99.90;;;;;;5112170;28;20042;-56
2022/07/01 04:31:20;;;;;;;6.27;3.47;;;12.20;99.90;;;;;;5112700;28;20040;-57
2022/07/01 04:33:48;;;;;;;3.97;2.97;;;12.20;99.90;;;;;;5112299;28;20402;-58
2022/07/01 04:36:17;;;;;;;7.78;3.28;;;12.20;99.90;;;;;;5111862;28;20391;-57
2022/07/01 04:38:45;;;;;;;4.55;2.75;;;12.20;99.90;;;;;;5112287;28;20047;-58
2022/07/01 04:43:58;;;;;;;5.00;3.10;;;12.20;99.90;;;;;;5111988;28;20052;-57
2022/07/01 04:46:26;;;;;;;7.55;2.70;;;12.30;99.90;;;;;;5110019;28;20043;-57
2022/07/01 04:48:54;;;;;;;3.42;2.75;;;12.30;99.90;;;;;;5093035;28;20047;-58
2022/07/01 04:51:21;;;;;;;5.18;3.72;;;12.30;99.90;;;;;;5101470;28;20510;-58
2022/07/01 04:53:49;;;;;;;4.70;3.08;;;12.30;99.90;;;;;;5107427;28;20040;-55
2022/07/01 04:56:17;;;;;;;7.25;3.08;;;12.40;99.90;;;;;;5109557;28;20482;-56
2022/07/01 04:58:45;;;;;;;4.00;2.85;;;12.30;99.90;;;;;;5092468;28;20431;-54
2022/07/01 05:01:12;;;;;;;6.25;2.78;;;12.40;99.90;;;;;;5089407;28;20052;-55
2022/07/01 05:03:40;;;;;;;3.30;2.78;;;12.30;99.90;;;;;;5102243;27;20047;-54
2022/07/01 05:06:08;;;;;;;5.47;2.90;;;12.40;99.90;;;;;;5105961;28;20043;-54
2022/07/01 05:08:36;;;;;;;11.57;3.00;;;12.40;99.90;;;;;;5105433;28;20407;-54
2022/07/01 05:11:03;;;;;;;3.33;2.78;;;12.50;99.90;;;;;;5108328;28;20395;-55
2022/07/01 05:13:31;;;;;;;10.00;3.10;;;12.40;99.90;;;;;;5109558;28;20051;-55
2022/07/01 05:15:59;;;;;;;3.83;2.95;;;12.40;99.90;;;;;;5104873;28;20392;-55
2022/07/01 05:23:59;;;;;;;4.88;3.00;;;12.50;99.90;;;;;;5106752;28;20047;-56
2022/07/01 05:26:27;;;;;;;8.55;3.60;;;12.50;99.90;;;;;;5110367;28;20423;-56
2022/07/01 05:28:55;;;;;;;6.32;2.92;;;12.60;99.90;;;;;;5095067;28;20490;-57
2022/07/01 05:31:23;;;;;;;7.10;3.55;;;12.60;99.90;;;;;;5090458;28;20138;-58
2022/07/01 05:33:50;;;;;;;5.45;3.50;;;12.60;99.90;;;;;;5091158;28;20484;-57
2022/07/01 05:36:18;;;;;;;7.72;4.70;;;12.60;99.90;;;;;;5107796;28;20032;-58
2022/07/01 05:38:46;;;;;;;4.15;3.10;;;12.70;99.90;;;;;;5094726;28;20062;-57
2022/07/01 05:41:15;;;;;;;6.70;3.03;;;12.70;99.90;;;;;;5101490;28;20059;-55
2022/07/01 05:43:43;;;;;;;5.22;3.50;;;12.80;99.90;;;;;;5108893;28;20062;-57
2022/07/01 05:46:11;;;;;;;7.47;3.03;;;12.80;99.90;;;;;;5107999;28;20031;-57
2022/07/01 05:48:38;;;;;;;5.75;3.20;;;12.80;99.90;;;;;;5091840;28;20056;-55
2022/07/01 05:51:06;;;;;;;8.43;3.13;;;12.90;99.90;;;;;;5086704;28;20040;-56
2022/07/01 05:53:34;;;;;;;5.03;3.10;;;13.00;99.90;;;;;;5094227;28;20063;-54
2022/07/01 05:56:01;;;;;;;4.97;3.25;;;13.00;99.90;;;;;;5104645;28;20058;-55
2022/07/01 05:58:29;;;;;;;5.07;2.90;;;13.10;99.90;;;;;;5088784;28;20042;-56
2022/07/01 06:00:57;;;;;;;4.90;3.05;;;13.10;99.90;;;;;;5106604;28;20054;-57
2022/07/01 06:03:35;;;;;;;4.28;2.88;;;13.20;99.90;;;;;;5099301;28;20051;-56
2022/07/01 06:06:03;;;;;;;7.63;4.18;;;13.20;99.90;;;;;;5088573;28;20063;-56
2022/07/01 06:08:31;;;;;;;5.18;3.47;;;13.30;99.90;;;;;;5093789;28;20047;-57
2022/07/01 06:10:58;;;;;;;9.35;3.33;;;13.30;99.90;;;;;;5089724;28;20051;-57
2022/07/01 06:13:26;;;;;;;10.85;3.30;;;13.30;99.90;;;;;;5089460;28;20056;-57
2022/07/01 06:15:53;;;;;;;4.80;3.20;;;13.30;99.90;;;;;;5104251;28;20414;-56
2022/07/01 06:18:21;;;;;;;7.50;2.80;;;13.30;99.90;;;;;;5098474;28;20048;-57
2022/07/01 06:20:49;;;;;;;3.75;2.80;;;13.30;99.90;;;;;;5085602;28;20040;-56
2022/07/01 06:23:16;;;;;;;4.10;2.28;;;13.40;99.90;;;;;;5109483;28;20055;-58
2022/07/01 06:25:44;;;;;;;7.57;2.80;;;13.40;99.90;;;;;;5110103;28;20490;-57
2022/07/01 06:28:12;;;;;;;4.20;2.72;;;13.40;99.90;;;;;;5101060;28;20052;-57
2022/07/01 06:30:43;;;;;;;8.57;3.08;;;13.40;99.90;;;;;;5108041;28;20035;-57
2022/07/01 06:33:12;;;;;;;6.45;2.88;;;13.40;99.90;;;;;;5104040;28;20044;-57
2022/07/01 06:35:40;;;;;;;3.97;2.88;;;13.50;99.90;;;;;;5090390;28;20055;-58
2022/07/01 06:38:08;;;;;;;5.40;2.78;;;13.50;99.90;;;;;;5093626;28;20365;-57
2022/07/01 06:40:36;;;;;;;7.22;2.63;;;13.50;99.90;;;;;;5111055;28;20164;-57
2022/07/01 06:43:03;;;;;;;4.18;2.28;;;13.60;99.90;;;;;;5113931;28;20264;-56
2022/07/01 06:45:31;;;;;;;4.95;2.70;;;13.60;99.90;;;;;;5112996;28;20046;-56
2022/07/01 06:47:59;;;;;;;5.70;3.10;;;13.70;99.90;;;;;;5105919;28;20090;-57
2022/07/01 06:50:27;;;;;;;3.45;2.70;;;13.80;99.90;;;;;;5101345;28;20044;-55
2022/07/01 06:52:54;;;;;;;2.70;2.10;;;13.90;99.90;;;;;;5112673;28;20054;-57
2022/07/01 06:55:22;;;;;;;3.05;2.53;;;14.00;99.90;;;;;;5112648;28;20036;-58
2022/07/01 06:57:50;;;;;;;2.45;2.25;;;14.00;99.90;;;;;;5102182;28;20491;-58
2022/07/01 07:00:17;;;;;;;4.55;2.20;;;14.20;99.90;;;;;;5096647;28;20043;-57
2022/07/01 07:02:45;;;;;;;4.10;2.75;;;14.20;99.90;;;;;;5104744;28;20044;-59
2022/07/01 07:05:13;;;;;;;6.10;2.08;;;14.30;99.90;;;;;;5108565;28;20047;-56
2022/07/01 07:07:40;;;;;;;3.35;2.00;;;14.40;99.90;;;;;;5106822;28;20044;-56
2022/07/01 07:10:08;;;;;;;4.60;1.95;;;14.50;99.90;;;;;;5099010;28;20050;-56
2022/07/01 07:12:36;;;;;;;2.85;1.67;;;14.60;99.90;;;;;;5094116;28;20047;-56
2022/07/01 07:15:04;;;;;;;9.35;2.13;;;14.70;99.90;;;;;;5113332;27;20059;-58
2022/07/01 07:17:32;;;;;;;2.92;1.58;;;14.80;99.90;;;;;;5103021;28;20596;-55
2022/07/01 07:19:59;;;;;;;3.90;1.67;;;14.80;99.90;;;;;;5103314;28;20612;-59
2022/07/01 07:22:27;;;;;;;1.80;1.52;;;14.80;99.90;;;;;;5102909;28;20415;-58
2022/07/01 07:24:55;;;;;;;4.05;1.77;;;14.80;99.90;;;;;;5098986;28;20507;-59
2022/07/01 07:27:22;;;;;;;3.83;1.77;;;14.80;99.90;;;;;;5099980;28;20054;-58
2022/07/01 07:29:50;;;;;;;2.85;1.52;;;14.80;99.90;;;;;;5093106;28;20400;-57
2022/07/01 07:32:17;;;;;;;7.93;2.22;;;14.80;99.90;;;;;;5094206;28;20052;-58
2022/07/01 07:34:45;;;;;;;3.15;1.48;;;14.90;99.90;;;;;;5090006;28;20043;-58
2022/07/01 07:37:13;;;;;;;3.63;1.88;;;14.90;99.90;;;;;;5089222;28;20483;-56
2022/07/01 07:39:41;;;;;;;3.85;1.55;;;15.00;99.90;;;;;;5071033;28;20058;-55
2022/07/01 07:42:08;;;;;;;3.15;1.95;;;15.00;99.90;;;;;;5091517;28;20379;-56
2022/07/01 07:44:37;;;;;;;3.92;2.35;;;15.10;99.90;;;;;;5092433;28;20048;-56
2022/07/01 07:47:05;;;;;;;10.80;2.08;;;15.10;99.90;;;;;;5091128;28;20126;-56
2022/07/01 07:49:32;;;;;;;3.72;1.60;;;15.10;99.90;;;;;;5092022;28;20510;-55
2022/07/01 07:52:00;;;;;;;3.78;1.50;;;15.20;99.90;;;;;;5092540;28;20403;-56
2022/07/01 07:54:27;;;;;;;9.27;1.80;;;15.30;99.90;;;;;;5092374;28;20058;-56
2022/07/01 07:56:55;;;;;;;2.35;1.73;;;15.30;99.90;;;;;;5092607;28;20048;-56
2022/07/01 07:59:23;;;;;;;2.25;1.70;;;15.30;99.90;;;;;;5109827;28;20050;-56
2022/07/01 08:01:51;;;;;;;4.28;1.55;;;15.40;99.90;;;;;;5110018;28;20048;-58
2022/07/01 08:04:18;;;;;;;4.50;2.17;;;15.50;99.90;;;;;;5097681;28;20040;-57
2022/07/01 08:06:46;;;;;;;5.05;2.00;;;15.50;99.90;;;;;;5105340;28;20036;-56
2022/07/01 08:09:13;;;;;;;6.43;1.80;;;15.60;99.90;;;;;;5092122;28;20086;-58
2022/07/01 08:11:41;;;;;;;4.18;1.73;;;15.60;99.90;;;;;;5091880;28;20035;-57
2022/07/01 08:14:09;;;;;;;4.45;1.80;;;15.70;99.90;;;;;;5089737;28;20059;-58
2022/07/01 08:16:37;;;;;;;5.13;1.85;;;15.80;99.90;;;;;;5091834;28;20528;-59
2022/07/01 08:19:04;;;;;;;4.22;1.90;;;15.80;99.90;;;;;;5091025;28;20526;-58
2022/07/01 08:21:32;;;;;;;5.18;2.10;;;15.80;99.90;;;;;;5092001;28;20044;-57
2022/07/01 08:24:00;;;;;;;3.80;1.83;;;15.80;99.90;;;;;;5091592;28;20364;-58
2022/07/01 08:26:27;;;;;;;7.28;1.95;;;15.80;99.90;;;;;;5088983;28;20514;-58
2022/07/01 08:28:55;;;;;;;6.22;2.50;;;15.70;99.90;;;;;;5087112;28;20044;-58
2022/07/01 08:31:23;;;;;;;8.60;2.00;;;15.80;99.90;;;;;;5088208;28;20060;-58
2022/07/01 08:33:52;;;;;;;4.85;2.25;;;15.80;99.90;;;;;;5091894;28;20051;-60
2022/07/01 08:36:20;;;;;;;6.25;1.80;;;15.90;99.90;;;;;;5106066;28;20042;-57
2022/07/01 08:38:49;;;;;;;7.18;2.00;;;15.90;99.90;;;;;;5097164;28;20036;-57
2022/07/01 08:41:18;;;;;;;3.97;1.75;;;16.00;99.90;;;;;;5091399;28;20047;-55
2022/07/01 08:43:46;;;;;;;4.95;1.95;;;15.90;99.90;;;;;;5099022;28;20642;-57
2022/07/01 08:46:14;;;;;;;3.92;1.90;;;15.90;99.90;;;;;;5110509;28;20055;-56
2022/07/01 08:48:43;;;;;;;6.32;2.25;;;15.90;99.90;;;;;;5100882;28;20047;-57
2022/07/01 08:51:12;;;;;;;2.88;1.95;;;15.90;99.90;;;;;;5090940;28;20052;-56
2022/07/01 08:53:39;;;;;;;3.45;1.85;;;15.80;99.90;;;;;;5110927;28;20040;-56
2022/07/01 08:58:54;;;;;;;6.97;1.98;;;15.90;99.90;;;;;;5101454;28;20048;-56
2022/07/01 09:01:24;;;;;;;5.63;2.28;;;16.00;99.90;;;;;;5091101;28;20047;-57
2022/07/01 09:03:55;;;;;;;5.95;2.00;;;16.10;99.90;;;;;;5089675;28;20053;-56
2022/07/01 09:06:28;;;;;;;7.07;2.50;;;16.30;99.90;;;;;;5090509;28;20044;-57
2022/07/01 09:09:20;;;;;;;8.25;2.22;;;16.30;99.90;;;;;;5090187;28;20048;-58
2022/07/01 09:11:53;;;;;;;7.22;2.08;;;16.40;99.90;;;;;;5104373;28;20364;-57
2022/07/01 09:14:22;;;;;;;6.95;2.10;;;16.40;99.90;;;;;;5105247;28;20145;-58
2022/07/01 09:16:51;;;;;;;18.02;2.05;;;16.50;99.90;;;;;;5109402;28;20391;-58
2022/07/01 09:19:20;;;;;;;4.40;2.00;;;16.50;99.90;;;;;;5105591;28;20534;-55
2022/07/01 09:22:00;;;;;;;4.53;1.88;;;16.50;99.90;;;;;;5096253;28;20044;-56
2022/07/01 09:24:42;;;;;;;4.95;1.85;;;16.60;99.90;;;;;;5103939;28;20489;-57
2022/07/01 09:27:13;;;;;;;5.68;2.17;;;16.60;99.90;;;;;;5100973;28;20054;-56
2022/07/01 09:29:44;;;;;;;7.63;2.25;;;16.60;99.90;;;;;;5104534;28;20058;-56
2022/07/01 09:32:14;;;;;;;6.65;2.03;;;16.70;99.90;;;;;;5093280;28;20059;-56
2022/07/01 09:34:45;;;;;;;4.47;1.95;;;16.80;99.90;;;;;;5104169;28;20039;-57
2022/07/01 09:37:15;;;;;;;3.47;2.15;;;16.90;99.90;;;;;;5100666;28;20403;-58
2022/07/01 09:39:54;;;;;;;5.93;2.13;;;17.00;99.90;;;;;;5095820;28;20036;-57
2022/07/01 09:42:24;;;;;;;2.67;2.03;;;17.10;99.90;;;;;;5104148;28;20035;-57
2022/07/01 09:44:55;;;;;;;3.30;1.58;;;17.20;99.90;;;;;;5102760;28;20055;-56
2022/07/01 09:47:33;;;;;;;6.80;2.20;;;17.30;99.90;;;;;;5102148;28;20043;-56
2022/07/01 09:50:04;;;;;;;6.18;2.00;;;17.40;99.90;;;;;;5093361;28;20495;-55
2022/07/01 09:52:33;;;;;;;5.07;1.30;;;17.50;99.90;;;;;;5109233;28;20051;-55
2022/07/01 09:55:05;;;;;;;4.97;1.65;;;17.60;99.90;;;;;;5109926;28;20071;-56
2022/07/01 09:57:32;;;;;;;1.77;1.20;;;17.70;99.90;;;;;;5103256;28;20059;-55
2022/07/01 10:00:00;;;;;;;5.15;1.30;;;17.90;99.90;;;;;;5105591;28;20051;-55
2022/07/01 10:02:33;;;;;;;2.58;1.00;;;18.10;99.90;;;;;;5104939;28;20044;-56
2022/07/01 10:05:05;;;;;;;4.90;0.90;;;18.30;99.90;;;;;;5098866;28;20410;-57
2022/07/01 10:07:41;;;;;;;5.88;1.35;;;18.40;99.90;;;;;;5108886;28;20048;-57
2022/07/01 10:10:26;;;;;;;5.00;1.20;;;18.50;99.90;;;;;;5094095;28;20052;-55
2022/07/01 10:12:56;;;;;;;5.90;1.23;;;18.70;99.90;;;;;;5111045;27;20043;-55
2022/07/01 10:15:25;;;;;;;3.65;1.20;;;18.70;99.90;;;;;;5112099;28;20051;-55
2022/07/01 10:17:53;;;;;;;3.27;1.00;;;18.70;99.90;;;;;;5110136;28;20047;-55
2022/07/01 10:20:25;;;;;;;5.50;1.00;;;18.70;99.90;;;;;;5110516;28;20303;-55
2022/07/01 10:23:05;;;;;;;3.70;1.25;;;18.50;99.90;;;;;;5113948;28;20054;-55
2022/07/01 10:25:35;;;;;;;;;;;18.30;99.90;;;;;;5101270;28;20198;-55
2022/07/01 10:28:12;;;;;;;3.10;1.20;;;18.10;99.90;;;;;;5098419;28;20359;-55
2022/07/01 10:30:59;;;;;;;3.42;1.50;;;17.90;99.90;;;;;;5106490;28;20044;-57
2022/07/01 10:33:31;;;;;;;6.18;1.33;;;17.80;99.90;;;;;;5092773;28;20055;-57
2022/07/01 10:36:11;;;;;;;3.65;1.13;;;17.80;99.90;;;;;;5094215;28;20510;-58
2022/07/01 10:39:06;;;;;;;6.72;1.30;;;17.90;99.90;;;;;;5093767;28;20395;-56
2022/07/01 10:41:39;;;;;;;5.13;1.40;;;18.00;99.90;;;;;;5093333;28;20468;-58
2022/07/01 10:44:14;;;;;;;5.82;2.35;;;18.20;99.90;;;;;;5094900;28;20435;-57
2022/07/01 10:47:05;;;;;;;2.25;1.10;;;18.40;99.90;;;;;;5091161;28;20047;-58
2022/07/01 10:49:36;;;;;;;6.40;1.73;;;18.50;99.90;;;;;;5092090;28;20040;-57
2022/07/01 10:52:11;;;;;;;6.10;1.33;;;18.70;99.90;;;;;;5090522;28;20511;-58
2022/07/01 10:54:39;;;;;;;5.03;1.38;;;18.90;99.90;;;;;;5110228;28;20056;-58
2022/07/01 10:57:17;;;;;;;3.13;1.02;;;19.00;99.90;;;;;;5094092;28;20525;-58
2022/07/01 10:59:47;;;;;;;5.35;1.50;;;19.10;99.90;;;;;;5093072;28;20044;-57
2022/07/01 11:02:16;;;;;;;;;;;19.10;99.90;;;;;;5091954;28;20522;-56
2022/07/01 11:04:52;;;;;;;1.85;0.80;;;19.10;99.90;;;;;;5090972;28;20335;-57
2022/07/01 11:07:20;;;;;;;2.00;1.08;;;19.20;99.90;;;;;;5108573;28;20043;-57
2022/07/01 11:09:48;;;;;;;4.55;0.90;;;19.40;99.90;;;;;;5099529;28;20039;-58
2022/07/01 11:12:16;;;;;;;5.47;1.17;;;19.60;99.90;;;;;;5109888;28;20058;-58
2022/07/01 11:14:44;;;;;;;3.35;0.90;;;19.80;99.90;;;;;;5108396;28;20046;-58
2022/07/01 11:17:13;;;;;;;2.50;1.00;;;19.90;99.90;;;;;;5100255;28;20051;-58
2022/07/01 11:19:52;;;;;;;3.58;1.00;;;19.90;99.90;;;;;;5098477;28;20280;-60
2022/07/01 11:22:21;;;;;;;5.32;1.33;;;20.00;99.90;;;;;;5104122;28;20569;-57
2022/07/01 11:24:54;;;;;;;8.23;1.42;;;20.00;99.90;;;;;;5111191;28;20044;-58
2022/07/01 11:27:22;;;;;;;2.65;1.10;;;20.10;99.90;;;;;;5115357;27;20048;-58
2022/07/01 11:29:57;;;;;;;5.85;1.10;;;20.00;99.60;;;;;;5095751;28;20040;-59
2022/07/01 11:32:28;;;;;;;3.03;0.73;;;19.80;99.90;;;;;;5100179;28;20052;-63
2022/07/01 11:34:59;;;;;;;4.00;1.10;;;19.70;99.60;;;;;;5105630;28;20047;-58
2022/07/01 11:40:17;;;;;;;3.47;1.20;;;19.40;99.90;;;;;;5108495;28;20537;-56
2022/07/01 11:42:46;;;;;;;2.58;1.10;;;19.20;99.90;;;;;;5103927;28;20047;-56
2022/07/01 11:45:25;;;;;;;8.40;1.42;;;19.10;99.90;;;;;;5105513;28;20051;-56
2022/07/01 11:47:53;;;;;;;8.95;1.25;;;19.00;99.90;;;;;;5096070;28;20047;-55
2022/07/01 11:50:21;;;;;;;2.05;1.10;;;18.90;99.90;;;;;;5107444;28;20047;-56
2022/07/01 11:52:52;;;;;;;3.08;1.40;;;18.80;99.90;;;;;;5108263;28;20046;-55
2022/07/01 11:55:20;;;;;;;3.28;1.40;;;18.90;99.90;;;;;;5092893;28;20047;-59
2022/07/01 11:58:05;;;;;;;2.88;1.50;;;18.90;99.90;;;;;;5106685;28;20109;-56
2022/07/01 12:00:33;;;;;;;7.68;1.90;;;18.80;99.90;;;;;;5107501;28;20394;-56
2022/07/01 12:03:01;;;;;;;4.85;1.60;;;18.80;99.90;;;;;;5107873;28;20052;-56
2022/07/01 12:05:30;;;;;;;2.88;1.40;;;19.00;99.90;;;;;;5106466;28;20445;-56
2022/07/01 12:08:05;;;;;;;3.67;1.30;;;19.10;99.90;;;;;;5104984;28;20054;-58
2022/07/01 12:10:33;;;;;;;3.63;2.08;;;19.20;99.90;;;;;;5107277;28;20592;-56
2022/07/01 12:13:19;;;;;;;4.70;1.20;;;19.20;99.90;;;;;;5107159;28;20048;-56
2022/07/01 12:15:47;;;;;;;3.22;1.65;;;19.20;99.90;;;;;;5107744;28;20154;-56
2022/07/01 12:18:15;;;;;;;5.45;2.30;;;19.30;99.90;;;;;;5106306;28;20039;-58
2022/07/01 12:21:04;;;;;;;5.72;1.88;;;19.40;99.90;;;;;;5108396;28;20048;-56
2022/07/01 12:23:36;;;;;;;5.05;1.40;;;19.30;99.90;;;;;;5108194;28;20058;-57
2022/07/01 12:26:05;;;;;;;3.60;2.10;;;19.20;99.90;;;;;;5106575;28;20054;-56
2022/07/01 12:28:38;;;;;;;5.53;1.55;;;19.10;99.90;;;;;;5105547;28;20051;-56
2022/07/01 12:31:08;;;;;;;4.07;1.45;;;19.00;99.90;;;;;;5107578;28;20044;-56
2022/07/01 12:33:38;;;;;;;3.13;1.10;;;18.90;99.90;;;;;;5104436;28;20055;-57
2022/07/01 12:36:07;;;;;;;5.17;1.40;;;18.80;99.90;;;;;;5106721;28;20079;-57
2022/07/01 12:38:34;;;;;;;5.00;1.50;;;18.80;99.90;;;;;;5088170;28;20304;-56
2022/07/01 12:41:02;;;;;;;3.30;1.33;;;18.80;99.90;;;;;;5103483;28;20505;-59
2022/07/01 12:43:37;;;;;;;4.72;1.20;;;19.00;99.90;;;;;;5096584;28;20044;-58
2022/07/01 12:46:05;;;;;;;3.92;1.20;;;19.20;99.90;;;;;;5091256;28;20054;-56
2022/07/01 12:48:48;;;;;;;5.70;1.00;;;19.50;99.90;;;;;;5103217;28;20055;-57
2022/07/01 12:51:16;;;;;;;1.42;0.82;;;19.80;99.90;;;;;;5107998;28;20043;-55
2022/07/01 12:53:44;;;;;;;10.43;1.30;;;20.10;99.90;;;;;;5107987;28;20478;-56
2022/07/01 12:56:24;;;;;;;4.50;1.10;;;20.30;99.90;;;;;;5107853;28;20051;-56
2022/07/01 12:58:52;;;;;;;2.38;0.90;;;20.50;99.90;;;;;;5107092;28;20415;-55
2022/07/01 13:01:21;;;;;;;3.25;1.00;;;20.50;99.90;;;;;;5090383;28;20059;-56
2022/07/01 13:03:49;;;;;;;3.75;1.00;;;20.40;99.80;;;;;;5087669;28;20503;-56
2022/07/01 13:06:16;;;;;;;8.85;1.20;;;20.30;99.70;;;;;;5105373;28;20043;-58
2022/07/01 13:08:44;;;;;;;2.25;1.20;;;20.20;99.90;;;;;;5095594;28;20502;-57
2022/07/01 13:11:12;;;;;;;3.75;1.33;;;20.00;99.90;;;;;;5087688;28;20052;-57
2022/07/01 13:13:40;;;;;;;6.68;1.40;;;19.80;99.90;;;;;;5089651;28;20044;-58
2022/07/01 13:16:07;;;;;;;3.58;1.02;;;19.70;99.90;;;;;;5086944;28;20051;-61